Flight Track Log - Related Links

Times and Time Zones

All times are in EDT time to prevent confusion due to time zone crossing. See the SWA3232 flight status page for this flight to view local times or setup timezone preferences in your user account.

Time Position Orientation Groundspeed Altitude Reporting Facility
EDT Latitude Longitude Course Direction KTS MPH feet Rate Location/Type
Sun 04:27:31 PM 38.6167 -121.5167 123° Southeast 224 258 5,700  Level Northern Cal TRACON
Sun 04:28:31 PM 38.5833 -121.4333 117° Southeast 270 311 8,500 2,944 Climbing Northern Cal TRACON
Sun 04:30:12 PM 38.5131 -121.2781 120° Southeast 338 389 13,600 3,202 Climbing Oakland Center
Sun 04:31:14 PM 38.4603 -121.1653 121° Southeast 366 421 17,200 3,366 Climbing Oakland Center
Sun 04:32:00 PM 38.3099 -120.9922 109° East  Level FlightAware Approximate
Sun 04:32:15 PM 38.4083 -121.0544 121° Southeast 379 436 20,500  Level Oakland Center
Sun 04:33:16 PM 38.3497 -120.9319 121° Southeast 401 461 23,700 3,148 Climbing Oakland Center
Sun 04:34:17 PM 38.2769 -120.7786 121° Southeast 417 480 26,900 2,634 Climbing Oakland Center
Sun 04:35:19 PM 38.2142 -120.6425 120° Southeast 442 509 29,100 2,098 Climbing Oakland Center
Sun 04:36:20 PM 38.1492 -120.5011 120° Southeast 458 527 31,200 2,705 Climbing Oakland Center
Sun 04:37:21 PM 38.0544 -120.4036 141° Southeast 452 520 34,600 2,390 Climbing Oakland Center
Sun 04:38:23 PM 37.9364 -120.3569 163° South 441 507 36,100 1,268 Climbing Oakland Center
Sun 04:39:24 PM 37.8147 -120.3086 163° South 452 520 37,200 1,180 Climbing Oakland Center
Sun 04:40:25 PM 37.6839 -120.2600 164° South 483 556 38,500 1,659 Climbing Oakland Center
Sun 04:41:27 PM 37.5583 -120.2106 163° South 482 555 40,600 1,220 Climbing Oakland Center
Sun 04:42:28 PM 37.4328 -120.1653 164° South 473 544 41,000 195 Climbing Oakland Center
Sun 04:43:30 PM 37.3094 -120.1178 163° South 467 537 41,000  Level Oakland Center
Sun 04:44:31 PM 37.1608 -120.0617 163° South 466 536 41,000  Level Oakland Center
Sun 04:45:32 PM 37.0397 -120.0131 162° South 463 533 41,000 -780 Level Oakland Center
Sun 04:46:34 PM 36.9183 -119.9656 163° South 458 527 39,400 -1,512 Descending Oakland Center
Sun 04:47:35 PM 36.7950 -119.9203 164° South 459 528 37,900 -1,475 Descending Oakland Center
Sun 04:48:36 PM 36.6703 -119.8711 162° South 465 535 36,400 -1,463 Descending Oakland Center
Sun 04:49:38 PM 36.5458 -119.8258 164° South 465 535 34,900 -1,512 Descending Oakland Center
Sun 04:50:39 PM 36.4214 -119.7792 163° South 465 535 33,300 -1,512 Descending Oakland Center
Sun 04:51:41 PM 36.2947 -119.7314 163° South 467 537 31,800 -1,122 Descending Oakland Center
Sun 04:52:42 PM 36.1683 -119.6831 163° South 469 540 31,000 -393 Descending Oakland Center
Sun 04:53:43 PM 36.0403 -119.6367 164° South 472 543 31,000  Level Oakland Center
Sun 04:54:45 PM 35.8833 -119.6189 175° South 471 542 31,000 -390 Level Oakland Center
Sun 04:55:46 PM 35.7489 -119.6236 182° South 474 545 30,200 -878 Descending Oakland Center
Sun 04:56:48 PM 35.6158 -119.6286 182° South 474 545 29,200 -585 Descending Oakland Center
Sun 04:57:49 PM 35.4800 -119.6336 182° South 480 552 29,000 -98 Descending Oakland Center
Sun 04:58:51 PM 35.3450 -119.6389 182° South 482 555 29,000 -49 Level Oakland Center
Sun 04:59:52 PM 35.2156 -119.6067 169° South 481 554 28,900 -2,098 Descending Oakland Center
Sun 05:00:54 PM 35.1069 -119.5125 145° Southeast 478 550 24,700 -2,634 Descending Oakland Center
Sun 05:01:55 PM 34.9961 -119.4208 146° Southeast 483 556 23,500 -1,623 Descending Oakland Center
Sun 05:02:56 PM 34.8986 -119.3375 145° Southeast 438 504 21,400 -2,195 Descending Oakland Center
Sun 05:03:58 PM 34.8058 -119.2575 145° Southeast 419 482 19,000 -2,244 Descending Oakland Center
Sun 05:04:59 PM 34.7158 -119.1806 145° Southeast 403 464 16,800 -1,957 Descending Oakland Center
Sun 05:06:19 PM 34.5906 -119.0769 146° Southeast 360 414 14,400 -2,366 Descending Los Angeles Center
Sun 05:07:21 PM 34.5072 -119.0067 145° Southeast 368 423 11,200 -2,032 Descending Los Angeles Center
Sun 05:08:23 PM 34.4247 -118.9500 150° Southeast 336 387 10,200 -1,016 Descending Los Angeles Center
Sun 05:09:25 PM 34.3611 -118.8850 140° Southeast 300 345 9,100 -1,344 Descending Los Angeles Center
Sun 05:10:28 PM 34.3056 -118.8142 134° Southeast 291 335 7,400 -1,680 Descending Los Angeles Center
Sun 05:11:30 PM 34.2556 -118.7194 123° Southeast 278 320 5,600 -1,210 Descending Los Angeles Center
Sun 05:12:32 PM 34.2167 -118.6414 121° Southeast 275 316 4,900 -726 Descending Los Angeles Center
Sun 05:13:34 PM 34.2017 -118.5733 105° East 236 272 4,100 -919 Descending Los Angeles Center
Sun 05:14:36 PM 34.2000 -118.5061 92° East 204 235 3,000 -968 Descending Los Angeles Center
Sun 05:15:38 PM 34.1994 -118.4483 91° East 185 213 2,100 -823 Descending Los Angeles Center
Sun 05:16:40 PM 34.1989 -118.4039 91° East 158 182 1,300 -532 Descending Los Angeles Center
Sun 05:17:42 PM 34.1992 -118.3581 90° East 143 165 1,000 -290 Descending Los Angeles Center

Login

Don't have an account? Register now (free) for customized features, flight alerts, and more!